sensor_id;sensor_type;location;lat;lon;timestamp;P1;durP1;ratioP1;P2;durP2;ratioP2
11064;SDS011;5585;52.530;7.320;2023-12-29T00:00:35;5.83;;;1.90;;
11064;SDS011;5585;52.530;7.320;2023-12-29T00:03:02;7.77;;;1.80;;
11064;SDS011;5585;52.530;7.320;2023-12-29T00:05:29;12.37;;;2.73;;
11064;SDS011;5585;52.530;7.320;2023-12-29T00:07:55;7.87;;;1.97;;
11064;SDS011;5585;52.530;7.320;2023-12-29T00:10:23;5.60;;;2.07;;
11064;SDS011;5585;52.530;7.320;2023-12-29T00:12:50;8.17;;;2.13;;
11064;SDS011;5585;52.530;7.320;2023-12-29T00:15:17;6.47;;;1.70;;
11064;SDS011;5585;52.530;7.320;2023-12-29T00:17:43;6.33;;;1.90;;
11064;SDS011;5585;52.530;7.320;2023-12-29T00:20:10;6.83;;;2.10;;
11064;SDS011;5585;52.530;7.320;2023-12-29T00:22:36;7.17;;;2.00;;
11064;SDS011;5585;52.530;7.320;2023-12-29T00:25:03;4.60;;;1.70;;
11064;SDS011;5585;52.530;7.320;2023-12-29T00:27:31;7.10;;;1.93;;
11064;SDS011;5585;52.530;7.320;2023-12-29T00:29:58;6.20;;;1.87;;
11064;SDS011;5585;52.530;7.320;2023-12-29T00:32:24;6.73;;;1.80;;
11064;SDS011;5585;52.530;7.320;2023-12-29T00:34:51;7.03;;;1.70;;
11064;SDS011;5585;52.530;7.320;2023-12-29T00:37:17;5.50;;;1.73;;
11064;SDS011;5585;52.530;7.320;2023-12-29T00:39:44;7.30;;;1.67;;
11064;SDS011;5585;52.530;7.320;2023-12-29T00:42:10;8.13;;;1.80;;
11064;SDS011;5585;52.530;7.320;2023-12-29T00:44:38;5.23;;;1.80;;
11064;SDS011;5585;52.530;7.320;2023-12-29T00:47:04;4.27;;;1.90;;
11064;SDS011;5585;52.530;7.320;2023-12-29T00:49:31;8.43;;;1.97;;
11064;SDS011;5585;52.530;7.320;2023-12-29T00:51:57;4.67;;;1.60;;
11064;SDS011;5585;52.530;7.320;2023-12-29T00:54:25;7.23;;;1.70;;
11064;SDS011;5585;52.530;7.320;2023-12-29T00:56:51;5.40;;;2.03;;
11064;SDS011;5585;52.530;7.320;2023-12-29T00:59:18;4.37;;;1.50;;
11064;SDS011;5585;52.530;7.320;2023-12-29T01:01:46;6.30;;;1.73;;
11064;SDS011;5585;52.530;7.320;2023-12-29T01:04:13;8.97;;;2.60;;
11064;SDS011;5585;52.530;7.320;2023-12-29T01:06:39;5.00;;;2.00;;
11064;SDS011;5585;52.530;7.320;2023-12-29T01:09:06;6.53;;;2.10;;
11064;SDS011;5585;52.530;7.320;2023-12-29T01:11:34;6.07;;;1.93;;
11064;SDS011;5585;52.530;7.320;2023-12-29T01:14:00;6.13;;;1.63;;
11064;SDS011;5585;52.530;7.320;2023-12-29T01:16:26;8.77;;;2.13;;
11064;SDS011;5585;52.530;7.320;2023-12-29T01:18:54;4.80;;;1.90;;
11064;SDS011;5585;52.530;7.320;2023-12-29T01:21:21;6.63;;;1.93;;
11064;SDS011;5585;52.530;7.320;2023-12-29T01:23:47;8.83;;;2.33;;
11064;SDS011;5585;52.530;7.320;2023-12-29T01:26:13;6.80;;;2.03;;
11064;SDS011;5585;52.530;7.320;2023-12-29T01:28:40;6.60;;;1.90;;
11064;SDS011;5585;52.530;7.320;2023-12-29T01:31:06;6.03;;;1.40;;
11064;SDS011;5585;52.530;7.320;2023-12-29T01:33:34;5.60;;;1.67;;
11064;SDS011;5585;52.530;7.320;2023-12-29T01:36:02;7.30;;;1.80;;
11064;SDS011;5585;52.530;7.320;2023-12-29T01:38:28;6.83;;;1.50;;
11064;SDS011;5585;52.530;7.320;2023-12-29T01:40:54;9.57;;;1.87;;
11064;SDS011;5585;52.530;7.320;2023-12-29T01:43:21;6.83;;;1.67;;
11064;SDS011;5585;52.530;7.320;2023-12-29T01:45:47;5.13;;;1.50;;
11064;SDS011;5585;52.530;7.320;2023-12-29T01:48:14;8.93;;;2.03;;
11064;SDS011;5585;52.530;7.320;2023-12-29T01:50:40;5.83;;;1.90;;
11064;SDS011;5585;52.530;7.320;2023-12-29T01:53:08;5.80;;;1.53;;
11064;SDS011;5585;52.530;7.320;2023-12-29T01:55:35;4.73;;;1.53;;
11064;SDS011;5585;52.530;7.320;2023-12-29T01:58:02;5.37;;;1.80;;
11064;SDS011;5585;52.530;7.320;2023-12-29T02:00:28;6.57;;;1.60;;
11064;SDS011;5585;52.530;7.320;2023-12-29T02:02:57;5.43;;;1.20;;
11064;SDS011;5585;52.530;7.320;2023-12-29T02:05:23;5.07;;;1.73;;
11064;SDS011;5585;52.530;7.320;2023-12-29T02:07:51;6.73;;;1.60;;
11064;SDS011;5585;52.530;7.320;2023-12-29T02:10:19;5.90;;;1.50;;
11064;SDS011;5585;52.530;7.320;2023-12-29T02:12:46;4.90;;;1.70;;
11064;SDS011;5585;52.530;7.320;2023-12-29T02:15:13;6.47;;;1.87;;
11064;SDS011;5585;52.530;7.320;2023-12-29T02:17:40;7.37;;;1.80;;
11064;SDS011;5585;52.530;7.320;2023-12-29T02:20:08;6.17;;;1.60;;
11064;SDS011;5585;52.530;7.320;2023-12-29T02:22:35;6.13;;;1.50;;
11064;SDS011;5585;52.530;7.320;2023-12-29T02:25:03;5.87;;;1.80;;
11064;SDS011;5585;52.530;7.320;2023-12-29T02:27:32;7.83;;;1.60;;
11064;SDS011;5585;52.530;7.320;2023-12-29T02:30:02;4.40;;;1.53;;
11064;SDS011;5585;52.530;7.320;2023-12-29T02:32:31;5.53;;;2.13;;
11064;SDS011;5585;52.530;7.320;2023-12-29T02:34:58;6.43;;;1.80;;
11064;SDS011;5585;52.530;7.320;2023-12-29T02:37:26;4.03;;;1.40;;
11064;SDS011;5585;52.530;7.320;2023-12-29T02:39:52;6.10;;;1.60;;
11064;SDS011;5585;52.530;7.320;2023-12-29T02:42:20;6.33;;;1.87;;
11064;SDS011;5585;52.530;7.320;2023-12-29T02:44:47;6.43;;;1.50;;
11064;SDS011;5585;52.530;7.320;2023-12-29T02:47:13;4.70;;;1.63;;
11064;SDS011;5585;52.530;7.320;2023-12-29T02:49:41;5.83;;;1.77;;
11064;SDS011;5585;52.530;7.320;2023-12-29T02:52:08;4.50;;;1.60;;
11064;SDS011;5585;52.530;7.320;2023-12-29T02:54:34;4.80;;;1.53;;
11064;SDS011;5585;52.530;7.320;2023-12-29T02:57:01;5.50;;;1.40;;
11064;SDS011;5585;52.530;7.320;2023-12-29T02:59:28;5.93;;;1.57;;
11064;SDS011;5585;52.530;7.320;2023-12-29T03:01:55;7.07;;;1.57;;
11064;SDS011;5585;52.530;7.320;2023-12-29T03:04:21;6.27;;;1.63;;
11064;SDS011;5585;52.530;7.320;2023-12-29T03:06:48;4.00;;;1.20;;
11064;SDS011;5585;52.530;7.320;2023-12-29T03:09:14;6.17;;;1.63;;
11064;SDS011;5585;52.530;7.320;2023-12-29T03:11:41;6.67;;;1.93;;
11064;SDS011;5585;52.530;7.320;2023-12-29T03:14:07;4.77;;;1.70;;
11064;SDS011;5585;52.530;7.320;2023-12-29T03:16:35;6.50;;;1.43;;
11064;SDS011;5585;52.530;7.320;2023-12-29T03:19:01;5.47;;;1.83;;
11064;SDS011;5585;52.530;7.320;2023-12-29T03:21:28;6.57;;;1.80;;
11064;SDS011;5585;52.530;7.320;2023-12-29T03:23:54;5.10;;;1.43;;
11064;SDS011;5585;52.530;7.320;2023-12-29T03:26:21;7.03;;;1.60;;
11064;SDS011;5585;52.530;7.320;2023-12-29T03:28:47;4.67;;;1.30;;
11064;SDS011;5585;52.530;7.320;2023-12-29T03:31:14;5.20;;;1.80;;
11064;SDS011;5585;52.530;7.320;2023-12-29T03:33:41;5.37;;;1.87;;
11064;SDS011;5585;52.530;7.320;2023-12-29T03:36:08;5.13;;;1.43;;
11064;SDS011;5585;52.530;7.320;2023-12-29T03:38:34;4.33;;;1.50;;
11064;SDS011;5585;52.530;7.320;2023-12-29T03:41:01;4.90;;;1.53;;
11064;SDS011;5585;52.530;7.320;2023-12-29T03:43:27;6.67;;;1.47;;
11064;SDS011;5585;52.530;7.320;2023-12-29T03:45:54;5.57;;;1.60;;
11064;SDS011;5585;52.530;7.320;2023-12-29T03:48:20;5.47;;;1.37;;
11064;SDS011;5585;52.530;7.320;2023-12-29T03:50:48;5.90;;;1.40;;
11064;SDS011;5585;52.530;7.320;2023-12-29T03:53:15;3.50;;;1.20;;
11064;SDS011;5585;52.530;7.320;2023-12-29T03:55:41;4.80;;;1.57;;
11064;SDS011;5585;52.530;7.320;2023-12-29T03:58:07;5.73;;;1.37;;
11064;SDS011;5585;52.530;7.320;2023-12-29T04:00:34;4.27;;;1.43;;
11064;SDS011;5585;52.530;7.320;2023-12-29T04:03:01;4.00;;;1.30;;
11064;SDS011;5585;52.530;7.320;2023-12-29T04:05:27;5.03;;;1.23;;
11064;SDS011;5585;52.530;7.320;2023-12-29T04:07:55;6.10;;;1.80;;
11064;SDS011;5585;52.530;7.320;2023-12-29T04:10:21;4.47;;;1.67;;
11064;SDS011;5585;52.530;7.320;2023-12-29T04:12:48;6.83;;;1.63;;
11064;SDS011;5585;52.530;7.320;2023-12-29T04:15:14;5.63;;;1.70;;
11064;SDS011;5585;52.530;7.320;2023-12-29T04:17:40;6.57;;;1.57;;
11064;SDS011;5585;52.530;7.320;2023-12-29T04:20:07;7.43;;;1.70;;
11064;SDS011;5585;52.530;7.320;2023-12-29T04:22:34;6.57;;;1.53;;
11064;SDS011;5585;52.530;7.320;2023-12-29T04:25:01;8.20;;;1.70;;
11064;SDS011;5585;52.530;7.320;2023-12-29T04:27:28;4.53;;;1.70;;
11064;SDS011;5585;52.530;7.320;2023-12-29T04:29:54;8.03;;;2.23;;
11064;SDS011;5585;52.530;7.320;2023-12-29T04:32:21;7.70;;;1.53;;
11064;SDS011;5585;52.530;7.320;2023-12-29T04:34:47;6.23;;;1.40;;
11064;SDS011;5585;52.530;7.320;2023-12-29T04:37:14;7.60;;;1.47;;
11064;SDS011;5585;52.530;7.320;2023-12-29T04:39:40;6.60;;;1.57;;
11064;SDS011;5585;52.530;7.320;2023-12-29T04:42:08;4.67;;;1.50;;
11064;SDS011;5585;52.530;7.320;2023-12-29T04:44:34;5.93;;;1.67;;
11064;SDS011;5585;52.530;7.320;2023-12-29T04:47:01;4.67;;;1.40;;
11064;SDS011;5585;52.530;7.320;2023-12-29T04:49:27;5.73;;;1.90;;
11064;SDS011;5585;52.530;7.320;2023-12-29T04:51:54;5.53;;;1.50;;
11064;SDS011;5585;52.530;7.320;2023-12-29T04:54:20;6.27;;;1.50;;
11064;SDS011;5585;52.530;7.320;2023-12-29T04:56:46;4.30;;;2.23;;
11064;SDS011;5585;52.530;7.320;2023-12-29T04:59:14;5.57;;;1.73;;
11064;SDS011;5585;52.530;7.320;2023-12-29T05:01:41;6.87;;;1.60;;
11064;SDS011;5585;52.530;7.320;2023-12-29T05:04:07;9.40;;;1.90;;
11064;SDS011;5585;52.530;7.320;2023-12-29T05:06:34;6.50;;;1.90;;
11064;SDS011;5585;52.530;7.320;2023-12-29T05:09:00;6.50;;;2.00;;
11064;SDS011;5585;52.530;7.320;2023-12-29T05:11:27;7.07;;;1.97;;
11064;SDS011;5585;52.530;7.320;2023-12-29T05:13:53;7.93;;;1.93;;
11064;SDS011;5585;52.530;7.320;2023-12-29T05:16:21;7.33;;;1.97;;
11064;SDS011;5585;52.530;7.320;2023-12-29T05:18:48;6.20;;;2.20;;
11064;SDS011;5585;52.530;7.320;2023-12-29T05:21:14;9.23;;;1.83;;
11064;SDS011;5585;52.530;7.320;2023-12-29T05:23:41;8.80;;;2.30;;
11064;SDS011;5585;52.530;7.320;2023-12-29T05:26:07;8.20;;;1.90;;
11064;SDS011;5585;52.530;7.320;2023-12-29T05:28:34;6.60;;;1.90;;
11064;SDS011;5585;52.530;7.320;2023-12-29T05:31:00;10.23;;;2.20;;
11064;SDS011;5585;52.530;7.320;2023-12-29T05:33:29;7.17;;;2.27;;
11064;SDS011;5585;52.530;7.320;2023-12-29T05:35:56;11.27;;;2.60;;
11064;SDS011;5585;52.530;7.320;2023-12-29T05:38:22;6.33;;;1.53;;
11064;SDS011;5585;52.530;7.320;2023-12-29T05:40:49;6.80;;;1.57;;
11064;SDS011;5585;52.530;7.320;2023-12-29T05:43:16;8.67;;;2.00;;
11064;SDS011;5585;52.530;7.320;2023-12-29T05:45:43;6.80;;;2.00;;
11064;SDS011;5585;52.530;7.320;2023-12-29T05:48:09;7.23;;;1.63;;
11064;SDS011;5585;52.530;7.320;2023-12-29T05:50:37;7.10;;;2.03;;
11064;SDS011;5585;52.530;7.320;2023-12-29T05:53:04;9.37;;;2.07;;
11064;SDS011;5585;52.530;7.320;2023-12-29T05:55:32;6.60;;;2.00;;
11064;SDS011;5585;52.530;7.320;2023-12-29T05:57:58;6.30;;;1.90;;
11064;SDS011;5585;52.530;7.320;2023-12-29T06:00:24;10.27;;;2.07;;
11064;SDS011;5585;52.530;7.320;2023-12-29T06:02:51;8.00;;;2.37;;
11064;SDS011;5585;52.530;7.320;2023-12-29T06:05:18;7.60;;;1.67;;
11064;SDS011;5585;52.530;7.320;2023-12-29T06:07:46;5.10;;;1.70;;
11064;SDS011;5585;52.530;7.320;2023-12-29T06:10:12;12.87;;;2.17;;
11064;SDS011;5585;52.530;7.320;2023-12-29T06:12:39;9.53;;;1.80;;
11064;SDS011;5585;52.530;7.320;2023-12-29T06:15:05;9.20;;;2.37;;
11064;SDS011;5585;52.530;7.320;2023-12-29T06:17:32;8.57;;;2.20;;
11064;SDS011;5585;52.530;7.320;2023-12-29T06:20:00;7.93;;;1.90;;
11064;SDS011;5585;52.530;7.320;2023-12-29T06:22:27;10.57;;;2.23;;
11064;SDS011;5585;52.530;7.320;2023-12-29T06:24:55;9.37;;;2.43;;
11064;SDS011;5585;52.530;7.320;2023-12-29T06:27:22;9.57;;;2.10;;
11064;SDS011;5585;52.530;7.320;2023-12-29T06:29:48;8.80;;;2.30;;
11064;SDS011;5585;52.530;7.320;2023-12-29T06:32:15;8.73;;;1.80;;
11064;SDS011;5585;52.530;7.320;2023-12-29T06:34:42;10.33;;;2.30;;
11064;SDS011;5585;52.530;7.320;2023-12-29T06:37:08;10.93;;;2.77;;
11064;SDS011;5585;52.530;7.320;2023-12-29T06:39:35;10.27;;;2.30;;
11064;SDS011;5585;52.530;7.320;2023-12-29T06:42:03;10.93;;;2.80;;
11064;SDS011;5585;52.530;7.320;2023-12-29T06:44:29;8.53;;;2.40;;
11064;SDS011;5585;52.530;7.320;2023-12-29T06:46:56;9.23;;;2.30;;
11064;SDS011;5585;52.530;7.320;2023-12-29T06:49:22;10.47;;;2.73;;
11064;SDS011;5585;52.530;7.320;2023-12-29T06:51:49;9.90;;;2.40;;
11064;SDS011;5585;52.530;7.320;2023-12-29T06:54:15;10.37;;;2.50;;
11064;SDS011;5585;52.530;7.320;2023-12-29T06:56:42;9.13;;;2.97;;
11064;SDS011;5585;52.530;7.320;2023-12-29T06:59:10;11.40;;;2.60;;
11064;SDS011;5585;52.530;7.320;2023-12-29T07:01:38;7.97;;;2.37;;
11064;SDS011;5585;52.530;7.320;2023-12-29T07:04:05;11.83;;;2.70;;
11064;SDS011;5585;52.530;7.320;2023-12-29T07:06:31;8.87;;;2.63;;
11064;SDS011;5585;52.530;7.320;2023-12-29T07:08:58;11.03;;;2.90;;
11064;SDS011;5585;52.530;7.320;2023-12-29T07:11:26;8.50;;;1.90;;
11064;SDS011;5585;52.530;7.320;2023-12-29T07:13:52;12.97;;;2.63;;
11064;SDS011;5585;52.530;7.320;2023-12-29T07:16:20;8.33;;;2.50;;
11064;SDS011;5585;52.530;7.320;2023-12-29T07:18:47;9.23;;;2.63;;
11064;SDS011;5585;52.530;7.320;2023-12-29T07:21:14;11.90;;;2.83;;
11064;SDS011;5585;52.530;7.320;2023-12-29T07:23:41;9.77;;;2.53;;
11064;SDS011;5585;52.530;7.320;2023-12-29T07:26:08;9.83;;;2.80;;
11064;SDS011;5585;52.530;7.320;2023-12-29T07:28:35;12.33;;;2.53;;
11064;SDS011;5585;52.530;7.320;2023-12-29T07:31:01;8.80;;;2.63;;
11064;SDS011;5585;52.530;7.320;2023-12-29T07:33:29;11.10;;;2.73;;
11064;SDS011;5585;52.530;7.320;2023-12-29T07:35:56;9.77;;;2.57;;
11064;SDS011;5585;52.530;7.320;2023-12-29T07:38:23;11.10;;;2.90;;
11064;SDS011;5585;52.530;7.320;2023-12-29T07:40:49;10.10;;;2.53;;
11064;SDS011;5585;52.530;7.320;2023-12-29T07:43:16;9.50;;;2.70;;
11064;SDS011;5585;52.530;7.320;2023-12-29T07:45:42;12.00;;;2.17;;
11064;SDS011;5585;52.530;7.320;2023-12-29T07:48:09;10.23;;;2.93;;
11064;SDS011;5585;52.530;7.320;2023-12-29T07:50:37;11.77;;;2.40;;
11064;SDS011;5585;52.530;7.320;2023-12-29T07:53:03;14.27;;;2.60;;
11064;SDS011;5585;52.530;7.320;2023-12-29T07:55:31;11.40;;;2.53;;
11064;SDS011;5585;52.530;7.320;2023-12-29T07:57:57;10.87;;;2.50;;
11064;SDS011;5585;52.530;7.320;2023-12-29T08:00:24;9.37;;;2.43;;
11064;SDS011;5585;52.530;7.320;2023-12-29T08:02:51;9.47;;;2.37;;
11064;SDS011;5585;52.530;7.320;2023-12-29T08:05:18;14.37;;;3.47;;
11064;SDS011;5585;52.530;7.320;2023-12-29T08:07:46;12.37;;;2.50;;
11064;SDS011;5585;52.530;7.320;2023-12-29T08:10:12;8.00;;;2.27;;
11064;SDS011;5585;52.530;7.320;2023-12-29T08:12:39;7.70;;;2.30;;
11064;SDS011;5585;52.530;7.320;2023-12-29T08:15:06;6.43;;;2.30;;
11064;SDS011;5585;52.530;7.320;2023-12-29T08:17:32;7.80;;;2.20;;
11064;SDS011;5585;52.530;7.320;2023-12-29T08:19:59;7.93;;;1.90;;
11064;SDS011;5585;52.530;7.320;2023-12-29T08:22:27;7.40;;;2.10;;
11064;SDS011;5585;52.530;7.320;2023-12-29T08:24:55;7.67;;;1.90;;
11064;SDS011;5585;52.530;7.320;2023-12-29T08:27:24;8.27;;;1.80;;
11064;SDS011;5585;52.530;7.320;2023-12-29T08:29:52;6.47;;;1.80;;
11064;SDS011;5585;52.530;7.320;2023-12-29T08:32:19;11.33;;;2.50;;
11064;SDS011;5585;52.530;7.320;2023-12-29T08:34:45;10.47;;;2.37;;
11064;SDS011;5585;52.530;7.320;2023-12-29T08:37:12;8.87;;;1.87;;
11064;SDS011;5585;52.530;7.320;2023-12-29T08:39:40;9.10;;;2.23;;
11064;SDS011;5585;52.530;7.320;2023-12-29T08:42:09;10.50;;;2.27;;
11064;SDS011;5585;52.530;7.320;2023-12-29T08:44:35;6.83;;;2.20;;
11064;SDS011;5585;52.530;7.320;2023-12-29T08:47:02;6.20;;;2.10;;
11064;SDS011;5585;52.530;7.320;2023-12-29T08:49:28;11.00;;;1.60;;
11064;SDS011;5585;52.530;7.320;2023-12-29T08:51:55;6.53;;;1.97;;
11064;SDS011;5585;52.530;7.320;2023-12-29T08:54:21;4.20;;;1.43;;
11064;SDS011;5585;52.530;7.320;2023-12-29T08:56:48;6.27;;;1.43;;
11064;SDS011;5585;52.530;7.320;2023-12-29T08:59:16;6.00;;;2.53;;
11064;SDS011;5585;52.530;7.320;2023-12-29T09:01:42;6.17;;;2.37;;
11064;SDS011;5585;52.530;7.320;2023-12-29T09:04:08;4.27;;;2.13;;
11064;SDS011;5585;52.530;7.320;2023-12-29T09:06:35;5.73;;;1.63;;
11064;SDS011;5585;52.530;7.320;2023-12-29T09:09:01;4.03;;;1.70;;
11064;SDS011;5585;52.530;7.320;2023-12-29T09:11:28;4.93;;;1.67;;
11064;SDS011;5585;52.530;7.320;2023-12-29T09:13:54;5.53;;;1.60;;
11064;SDS011;5585;52.530;7.320;2023-12-29T09:16:22;3.93;;;1.30;;
11064;SDS011;5585;52.530;7.320;2023-12-29T09:18:49;3.83;;;1.47;;
11064;SDS011;5585;52.530;7.320;2023-12-29T09:21:15;3.30;;;1.17;;
11064;SDS011;5585;52.530;7.320;2023-12-29T09:23:41;6.23;;;1.40;;
11064;SDS011;5585;52.530;7.320;2023-12-29T09:26:08;2.83;;;1.10;;
11064;SDS011;5585;52.530;7.320;2023-12-29T09:28:34;7.13;;;2.17;;
11064;SDS011;5585;52.530;7.320;2023-12-29T09:31:01;3.83;;;1.53;;
11064;SDS011;5585;52.530;7.320;2023-12-29T09:33:28;5.10;;;1.27;;
11064;SDS011;5585;52.530;7.320;2023-12-29T09:35:55;3.93;;;1.47;;
11064;SDS011;5585;52.530;7.320;2023-12-29T09:38:22;2.47;;;1.07;;
11064;SDS011;5585;52.530;7.320;2023-12-29T09:40:48;3.50;;;1.40;;
11064;SDS011;5585;52.530;7.320;2023-12-29T09:43:15;3.27;;;1.33;;
11064;SDS011;5585;52.530;7.320;2023-12-29T09:45:42;4.73;;;1.40;;
11064;SDS011;5585;52.530;7.320;2023-12-29T09:48:08;4.77;;;1.20;;
11064;SDS011;5585;52.530;7.320;2023-12-29T09:50:38;4.57;;;1.67;;
11064;SDS011;5585;52.530;7.320;2023-12-29T09:53:05;3.43;;;2.07;;
11064;SDS011;5585;52.530;7.320;2023-12-29T09:55:32;7.80;;;2.00;;
11064;SDS011;5585;52.530;7.320;2023-12-29T09:58:00;3.57;;;1.20;;
11064;SDS011;5585;52.530;7.320;2023-12-29T10:00:27;4.67;;;1.50;;
11064;SDS011;5585;52.530;7.320;2023-12-29T10:02:54;2.53;;;1.53;;
11064;SDS011;5585;52.530;7.320;2023-12-29T10:05:21;3.40;;;1.30;;
11064;SDS011;5585;52.530;7.320;2023-12-29T10:07:49;5.10;;;1.47;;
11064;SDS011;5585;52.530;7.320;2023-12-29T10:10:16;5.40;;;1.67;;
11064;SDS011;5585;52.530;7.320;2023-12-29T10:12:43;1.93;;;0.97;;
11064;SDS011;5585;52.530;7.320;2023-12-29T10:15:12;2.00;;;1.27;;
11064;SDS011;5585;52.530;7.320;2023-12-29T10:17:43;6.17;;;2.17;;
11064;SDS011;5585;52.530;7.320;2023-12-29T10:20:15;5.53;;;1.80;;
11064;SDS011;5585;52.530;7.320;2023-12-29T10:22:45;5.87;;;1.40;;
11064;SDS011;5585;52.530;7.320;2023-12-29T10:25:16;3.77;;;1.50;;
11064;SDS011;5585;52.530;7.320;2023-12-29T10:27:43;2.87;;;1.60;;
11064;SDS011;5585;52.530;7.320;2023-12-29T10:30:10;4.30;;;1.70;;
11064;SDS011;5585;52.530;7.320;2023-12-29T10:32:37;5.13;;;1.50;;
11064;SDS011;5585;52.530;7.320;2023-12-29T10:35:09;4.77;;;1.30;;
11064;SDS011;5585;52.530;7.320;2023-12-29T10:37:36;4.60;;;1.10;;
11064;SDS011;5585;52.530;7.320;2023-12-29T10:40:04;5.67;;;1.50;;
11064;SDS011;5585;52.530;7.320;2023-12-29T10:42:32;2.67;;;1.07;;
11064;SDS011;5585;52.530;7.320;2023-12-29T10:45:05;3.53;;;1.30;;
11064;SDS011;5585;52.530;7.320;2023-12-29T10:47:32;3.33;;;1.40;;
11064;SDS011;5585;52.530;7.320;2023-12-29T10:50:00;3.60;;;1.13;;
11064;SDS011;5585;52.530;7.320;2023-12-29T10:52:28;3.70;;;1.47;;
11064;SDS011;5585;52.530;7.320;2023-12-29T10:55:03;4.83;;;1.20;;
11064;SDS011;5585;52.530;7.320;2023-12-29T10:57:30;3.30;;;1.30;;
11064;SDS011;5585;52.530;7.320;2023-12-29T10:59:59;3.50;;;1.70;;
11064;SDS011;5585;52.530;7.320;2023-12-29T11:02:26;5.47;;;1.40;;
11064;SDS011;5585;52.530;7.320;2023-12-29T11:04:55;3.70;;;1.20;;
11064;SDS011;5585;52.530;7.320;2023-12-29T11:07:31;1.77;;;1.00;;
11064;SDS011;5585;52.530;7.320;2023-12-29T11:09:59;3.70;;;1.00;;
11064;SDS011;5585;52.530;7.320;2023-12-29T11:12:26;3.13;;;1.10;;
11064;SDS011;5585;52.530;7.320;2023-12-29T11:14:52;3.37;;;1.27;;
11064;SDS011;5585;52.530;7.320;2023-12-29T11:17:20;6.03;;;1.20;;
11064;SDS011;5585;52.530;7.320;2023-12-29T11:19:47;7.43;;;1.50;;
11064;SDS011;5585;52.530;7.320;2023-12-29T11:22:13;4.47;;;1.20;;
11064;SDS011;5585;52.530;7.320;2023-12-29T11:24:40;3.27;;;1.03;;
11064;SDS011;5585;52.530;7.320;2023-12-29T11:27:07;4.90;;;1.43;;
11064;SDS011;5585;52.530;7.320;2023-12-29T11:29:33;5.57;;;1.43;;
11064;SDS011;5585;52.530;7.320;2023-12-29T11:32:00;4.37;;;1.50;;
11064;SDS011;5585;52.530;7.320;2023-12-29T11:34:33;3.47;;;1.10;;
11064;SDS011;5585;52.530;7.320;2023-12-29T11:37:02;4.90;;;1.40;;
11064;SDS011;5585;52.530;7.320;2023-12-29T11:39:36;4.27;;;1.37;;
11064;SDS011;5585;52.530;7.320;2023-12-29T11:42:06;5.07;;;1.73;;
11064;SDS011;5585;52.530;7.320;2023-12-29T11:47:35;4.20;;;1.10;;
11064;SDS011;5585;52.530;7.320;2023-12-29T11:50:04;3.87;;;0.87;;
11064;SDS011;5585;52.530;7.320;2023-12-29T11:52:34;4.50;;;1.30;;
11064;SDS011;5585;52.530;7.320;2023-12-29T11:55:07;3.23;;;1.00;;
11064;SDS011;5585;52.530;7.320;2023-12-29T11:57:33;3.37;;;1.00;;
11064;SDS011;5585;52.530;7.320;2023-12-29T12:00:01;3.27;;;1.17;;
11064;SDS011;5585;52.530;7.320;2023-12-29T12:02:28;5.67;;;1.27;;
11064;SDS011;5585;52.530;7.320;2023-12-29T12:04:54;3.50;;;1.53;;
11064;SDS011;5585;52.530;7.320;2023-12-29T12:12:45;3.77;;;1.53;;
11064;SDS011;5585;52.530;7.320;2023-12-29T12:17:53;2.03;;;1.10;;
11064;SDS011;5585;52.530;7.320;2023-12-29T12:20:20;3.40;;;1.23;;
11064;SDS011;5585;52.530;7.320;2023-12-29T12:22:46;1.97;;;1.00;;
11064;SDS011;5585;52.530;7.320;2023-12-29T12:25:15;3.63;;;0.80;;
11064;SDS011;5585;52.530;7.320;2023-12-29T12:27:42;3.53;;;1.10;;
11064;SDS011;5585;52.530;7.320;2023-12-29T12:30:10;3.07;;;1.10;;
11064;SDS011;5585;52.530;7.320;2023-12-29T12:32:37;1.90;;;0.77;;
11064;SDS011;5585;52.530;7.320;2023-12-29T12:35:03;2.87;;;0.50;;
11064;SDS011;5585;52.530;7.320;2023-12-29T12:37:39;2.80;;;1.03;;
11064;SDS011;5585;52.530;7.320;2023-12-29T12:40:05;3.60;;;0.97;;
11064;SDS011;5585;52.530;7.320;2023-12-29T12:42:34;2.13;;;0.80;;
11064;SDS011;5585;52.530;7.320;2023-12-29T12:45:04;2.63;;;0.80;;
11064;SDS011;5585;52.530;7.320;2023-12-29T12:47:34;2.53;;;0.80;;
11064;SDS011;5585;52.530;7.320;2023-12-29T12:50:02;2.80;;;0.80;;
11064;SDS011;5585;52.530;7.320;2023-12-29T12:52:30;2.33;;;1.00;;
11064;SDS011;5585;52.530;7.320;2023-12-29T12:54:57;2.87;;;1.03;;
11064;SDS011;5585;52.530;7.320;2023-12-29T12:57:24;3.20;;;0.93;;
11064;SDS011;5585;52.530;7.320;2023-12-29T12:59:50;1.60;;;0.80;;
11064;SDS011;5585;52.530;7.320;2023-12-29T13:02:19;1.97;;;0.67;;
11064;SDS011;5585;52.530;7.320;2023-12-29T13:04:47;2.80;;;0.90;;
11064;SDS011;5585;52.530;7.320;2023-12-29T13:07:16;1.77;;;0.80;;
11064;SDS011;5585;52.530;7.320;2023-12-29T13:09:43;2.83;;;1.00;;
11064;SDS011;5585;52.530;7.320;2023-12-29T13:12:10;4.80;;;1.10;;
11064;SDS011;5585;52.530;7.320;2023-12-29T13:14:37;2.57;;;1.30;;
11064;SDS011;5585;52.530;7.320;2023-12-29T13:17:07;2.57;;;1.10;;
11064;SDS011;5585;52.530;7.320;2023-12-29T13:19:35;3.73;;;1.20;;
11064;SDS011;5585;52.530;7.320;2023-12-29T13:22:03;3.13;;;1.67;;
11064;SDS011;5585;52.530;7.320;2023-12-29T13:24:32;1.80;;;0.80;;
11064;SDS011;5585;52.530;7.320;2023-12-29T13:27:02;2.63;;;0.97;;
11064;SDS011;5585;52.530;7.320;2023-12-29T13:29:30;3.10;;;1.20;;
11064;SDS011;5585;52.530;7.320;2023-12-29T13:31:58;3.17;;;1.27;;
11064;SDS011;5585;52.530;7.320;2023-12-29T13:34:27;4.13;;;1.37;;
11064;SDS011;5585;52.530;7.320;2023-12-29T13:37:00;4.10;;;1.50;;
11064;SDS011;5585;52.530;7.320;2023-12-29T13:39:29;3.80;;;1.67;;
11064;SDS011;5585;52.530;7.320;2023-12-29T13:41:56;4.70;;;1.70;;
11064;SDS011;5585;52.530;7.320;2023-12-29T13:44:24;2.90;;;1.87;;
11064;SDS011;5585;52.530;7.320;2023-12-29T13:46:51;4.40;;;1.23;;
11064;SDS011;5585;52.530;7.320;2023-12-29T13:49:18;3.07;;;1.17;;
11064;SDS011;5585;52.530;7.320;2023-12-29T13:51:45;4.87;;;1.50;;
11064;SDS011;5585;52.530;7.320;2023-12-29T13:54:11;3.67;;;1.40;;
11064;SDS011;5585;52.530;7.320;2023-12-29T13:56:40;6.20;;;1.40;;
11064;SDS011;5585;52.530;7.320;2023-12-29T13:59:16;5.20;;;1.40;;
11064;SDS011;5585;52.530;7.320;2023-12-29T14:01:43;3.20;;;1.57;;
11064;SDS011;5585;52.530;7.320;2023-12-29T14:04:10;8.40;;;1.93;;
11064;SDS011;5585;52.530;7.320;2023-12-29T14:06:38;5.07;;;1.60;;
11064;SDS011;5585;52.530;7.320;2023-12-29T14:09:05;9.00;;;2.03;;
11064;SDS011;5585;52.530;7.320;2023-12-29T14:11:32;5.07;;;1.40;;
11064;SDS011;5585;52.530;7.320;2023-12-29T14:14:02;7.27;;;1.80;;
11064;SDS011;5585;52.530;7.320;2023-12-29T14:16:29;10.77;;;2.07;;
11064;SDS011;5585;52.530;7.320;2023-12-29T14:18:55;5.97;;;1.60;;
11064;SDS011;5585;52.530;7.320;2023-12-29T14:21:23;5.50;;;1.77;;
11064;SDS011;5585;52.530;7.320;2023-12-29T14:26:37;6.30;;;1.40;;
11064;SDS011;5585;52.530;7.320;2023-12-29T14:29:07;6.73;;;1.57;;
11064;SDS011;5585;52.530;7.320;2023-12-29T14:31:34;4.97;;;1.60;;
11064;SDS011;5585;52.530;7.320;2023-12-29T14:34:00;8.13;;;2.07;;
11064;SDS011;5585;52.530;7.320;2023-12-29T14:36:27;4.13;;;1.20;;
11064;SDS011;5585;52.530;7.320;2023-12-29T14:38:54;5.40;;;1.67;;
11064;SDS011;5585;52.530;7.320;2023-12-29T14:41:20;6.57;;;1.43;;
11064;SDS011;5585;52.530;7.320;2023-12-29T14:43:47;4.37;;;1.10;;
11064;SDS011;5585;52.530;7.320;2023-12-29T14:46:15;7.53;;;1.80;;
11064;SDS011;5585;52.530;7.320;2023-12-29T14:48:41;3.97;;;1.40;;
11064;SDS011;5585;52.530;7.320;2023-12-29T14:51:08;7.33;;;1.97;;
11064;SDS011;5585;52.530;7.320;2023-12-29T14:53:34;5.77;;;1.23;;
11064;SDS011;5585;52.530;7.320;2023-12-29T14:56:00;6.73;;;1.70;;
11064;SDS011;5585;52.530;7.320;2023-12-29T14:58:27;6.07;;;1.80;;
11064;SDS011;5585;52.530;7.320;2023-12-29T15:00:53;4.87;;;1.70;;
11064;SDS011;5585;52.530;7.320;2023-12-29T15:03:21;4.13;;;1.50;;
11064;SDS011;5585;52.530;7.320;2023-12-29T15:05:48;3.23;;;1.50;;
11064;SDS011;5585;52.530;7.320;2023-12-29T15:08:15;4.60;;;1.60;;
11064;SDS011;5585;52.530;7.320;2023-12-29T15:10:42;5.63;;;1.80;;
11064;SDS011;5585;52.530;7.320;2023-12-29T15:13:09;4.93;;;2.03;;